Overview Statistics Trail Chart Weather Telemetry Raw packets
 

This is the latest recevied weather packets stored in our database for station/object EB1BWO-11. If no packets are shown the sender has not sent any weather packets the latest 10 day(s).

<< 2 3 4 5 6 7 8 >>
Time Temp. Humidity Pressure Rain* Wind** Luminosity Snow
1788533864 32.22° C 52% 1023 hPa - - - -
1788532964 35.56° C 47% 1022.7 hPa - - - -
1788532063 41.11° C 38% 1022.8 hPa - - - -
1788531163 40.56° C 39% 1022.7 hPa - - - -
1788530263 38.33° C 41% 1022.7 hPa - - - -
1788529363 40.56° C 40% 1022.7 hPa - - - -
1788528463 50.56° C 28% 1022.7 hPa - - - -
1788527563 49.44° C 29% 1023.1 hPa - - - -
1788526662 51.67° C 29% 1023.2 hPa - - - -
1788525762 51.11° C 29% 1023.1 hPa - - - -
1788524862 51.11° C 27% 1023.2 hPa - - - -
1788523962 50° C 28% 1023.5 hPa - - - -
1788523062 48.33° C 30% 1023.6 hPa - - - -
1788522162 46.67° C 31% 1023.7 hPa - - - -
1788521262 45° C 32% 1024.1 hPa - - - -
1788520362 42.78° C 35% 1024.1 hPa - - - -
1788519461 41.67° C 36% 1024.1 hPa - - - -
1788518561 40° C 38% 1024.1 hPa - - - -
1788517661 38.89° C 40% 1024.3 hPa - - - -
1788516761 36.67° C 44% 1024.4 hPa - - - -
1788515861 35° C 46% 1024.1 hPa - - - -
1788514961 33.89° C 47% 1024 hPa - - - -
1788514061 32.78° C 47% 1023.9 hPa - - - -
1788513161 32.22° C 49% 1023.8 hPa - - - -
1788512261 31.67° C 49% 1023.6 hPa - - - -

* Rain since midnight (hover to see other rain measurements)
** Current wind speed in m/s (hover to see current wind gust speed)